sensor_id;sensor_type;location;lat;lon;timestamp;P1;durP1;ratioP1;P2;durP2;ratioP2
65691;SDS011;52411;52.716;6.696;2023-07-31T00:00:07;5.63;;;3.20;;
65691;SDS011;52411;52.716;6.696;2023-07-31T00:02:34;5.32;;;2.83;;
65691;SDS011;52411;52.716;6.696;2023-07-31T00:05:00;5.13;;;2.65;;
65691;SDS011;52411;52.716;6.696;2023-07-31T00:07:26;5.13;;;2.97;;
65691;SDS011;52411;52.716;6.696;2023-07-31T00:09:52;5.32;;;2.90;;
65691;SDS011;52411;52.716;6.696;2023-07-31T00:12:18;4.70;;;2.55;;
65691;SDS011;52411;52.716;6.696;2023-07-31T00:14:44;4.70;;;2.63;;
65691;SDS011;52411;52.716;6.696;2023-07-31T00:17:11;5.38;;;3.00;;
65691;SDS011;52411;52.716;6.696;2023-07-31T00:19:36;6.90;;;3.30;;
65691;SDS011;52411;52.716;6.696;2023-07-31T00:22:02;5.25;;;2.88;;
65691;SDS011;52411;52.716;6.696;2023-07-31T00:24:28;6.70;;;3.03;;
65691;SDS011;52411;52.716;6.696;2023-07-31T00:26:53;5.35;;;2.70;;
65691;SDS011;52411;52.716;6.696;2023-07-31T00:29:19;6.63;;;3.33;;
65691;SDS011;52411;52.716;6.696;2023-07-31T00:31:45;5.57;;;3.00;;
65691;SDS011;52411;52.716;6.696;2023-07-31T00:34:10;4.18;;;2.72;;
65691;SDS011;52411;52.716;6.696;2023-07-31T00:36:36;5.57;;;2.75;;
65691;SDS011;52411;52.716;6.696;2023-07-31T00:39:01;5.68;;;2.95;;
65691;SDS011;52411;52.716;6.696;2023-07-31T00:41:27;4.28;;;2.75;;
65691;SDS011;52411;52.716;6.696;2023-07-31T00:43:53;6.25;;;2.83;;
65691;SDS011;52411;52.716;6.696;2023-07-31T00:46:18;4.13;;;2.92;;
65691;SDS011;52411;52.716;6.696;2023-07-31T00:48:45;5.40;;;3.10;;
65691;SDS011;52411;52.716;6.696;2023-07-31T00:51:11;3.67;;;2.35;;
65691;SDS011;52411;52.716;6.696;2023-07-31T00:53:36;4.18;;;2.40;;
65691;SDS011;52411;52.716;6.696;2023-07-31T00:56:03;4.95;;;2.65;;
65691;SDS011;52411;52.716;6.696;2023-07-31T00:58:29;3.50;;;2.55;;
65691;SDS011;52411;52.716;6.696;2023-07-31T01:00:55;4.68;;;2.58;;
65691;SDS011;52411;52.716;6.696;2023-07-31T01:03:20;5.00;;;2.58;;
65691;SDS011;52411;52.716;6.696;2023-07-31T01:08:26;3.67;;;2.55;;
65691;SDS011;52411;52.716;6.696;2023-07-31T01:11:28;4.65;;;2.58;;
65691;SDS011;52411;52.716;6.696;2023-07-31T01:13:55;4.55;;;2.47;;
65691;SDS011;52411;52.716;6.696;2023-07-31T01:16:22;3.03;;;2.17;;
65691;SDS011;52411;52.716;6.696;2023-07-31T01:18:47;4.03;;;2.50;;
65691;SDS011;52411;52.716;6.696;2023-07-31T01:27:12;3.30;;;1.90;;
65691;SDS011;52411;52.716;6.696;2023-07-31T01:32:20;2.92;;;2.05;;
65691;SDS011;52411;52.716;6.696;2023-07-31T01:34:47;4.22;;;2.03;;
65691;SDS011;52411;52.716;6.696;2023-07-31T01:37:14;2.88;;;1.92;;
65691;SDS011;52411;52.716;6.696;2023-07-31T01:39:40;2.28;;;1.80;;
65691;SDS011;52411;52.716;6.696;2023-07-31T01:42:05;5.57;;;2.03;;
65691;SDS011;52411;52.716;6.696;2023-07-31T01:44:32;3.53;;;1.88;;
65691;SDS011;52411;52.716;6.696;2023-07-31T01:46:58;3.28;;;1.75;;
65691;SDS011;52411;52.716;6.696;2023-07-31T01:49:25;2.58;;;1.58;;
65691;SDS011;52411;52.716;6.696;2023-07-31T01:51:50;2.47;;;1.60;;
65691;SDS011;52411;52.716;6.696;2023-07-31T01:54:16;2.75;;;1.60;;
65691;SDS011;52411;52.716;6.696;2023-07-31T01:56:42;3.10;;;2.00;;
65691;SDS011;52411;52.716;6.696;2023-07-31T01:59:07;2.95;;;2.00;;
65691;SDS011;52411;52.716;6.696;2023-07-31T02:01:33;3.63;;;2.28;;
65691;SDS011;52411;52.716;6.696;2023-07-31T02:03:59;3.35;;;2.05;;
65691;SDS011;52411;52.716;6.696;2023-07-31T02:06:24;2.88;;;1.80;;
65691;SDS011;52411;52.716;6.696;2023-07-31T02:08:50;4.07;;;2.03;;
65691;SDS011;52411;52.716;6.696;2023-07-31T02:11:15;2.17;;;1.80;;
65691;SDS011;52411;52.716;6.696;2023-07-31T02:13:41;2.55;;;1.80;;
65691;SDS011;52411;52.716;6.696;2023-07-31T02:16:07;2.47;;;1.65;;
65691;SDS011;52411;52.716;6.696;2023-07-31T02:18:32;2.15;;;1.60;;
65691;SDS011;52411;52.716;6.696;2023-07-31T02:20:58;3.67;;;1.73;;
65691;SDS011;52411;52.716;6.696;2023-07-31T02:23:23;3.30;;;1.88;;
65691;SDS011;52411;52.716;6.696;2023-07-31T02:25:49;2.42;;;1.90;;
65691;SDS011;52411;52.716;6.696;2023-07-31T02:28:14;3.50;;;2.20;;
65691;SDS011;52411;52.716;6.696;2023-07-31T02:30:43;3.35;;;2.15;;
65691;SDS011;52411;52.716;6.696;2023-07-31T02:33:09;4.32;;;2.10;;
65691;SDS011;52411;52.716;6.696;2023-07-31T02:35:35;3.33;;;2.30;;
65691;SDS011;52411;52.716;6.696;2023-07-31T02:38:00;3.20;;;2.15;;
65691;SDS011;52411;52.716;6.696;2023-07-31T02:40:26;3.45;;;2.10;;
65691;SDS011;52411;52.716;6.696;2023-07-31T02:42:51;3.17;;;2.10;;
65691;SDS011;52411;52.716;6.696;2023-07-31T02:45:17;3.47;;;2.40;;
65691;SDS011;52411;52.716;6.696;2023-07-31T02:47:43;3.50;;;2.50;;
65691;SDS011;52411;52.716;6.696;2023-07-31T02:50:08;3.45;;;2.17;;
65691;SDS011;52411;52.716;6.696;2023-07-31T02:52:34;3.10;;;2.17;;
65691;SDS011;52411;52.716;6.696;2023-07-31T02:55:00;3.58;;;2.33;;
65691;SDS011;52411;52.716;6.696;2023-07-31T02:57:26;5.65;;;2.30;;
65691;SDS011;52411;52.716;6.696;2023-07-31T02:59:51;4.10;;;2.25;;
65691;SDS011;52411;52.716;6.696;2023-07-31T03:02:17;3.08;;;2.15;;
65691;SDS011;52411;52.716;6.696;2023-07-31T03:04:42;3.75;;;2.45;;
65691;SDS011;52411;52.716;6.696;2023-07-31T03:07:08;3.20;;;2.42;;
65691;SDS011;52411;52.716;6.696;2023-07-31T03:09:34;3.63;;;2.25;;
65691;SDS011;52411;52.716;6.696;2023-07-31T03:11:59;3.10;;;2.15;;
65691;SDS011;52411;52.716;6.696;2023-07-31T03:14:25;4.20;;;2.30;;
65691;SDS011;52411;52.716;6.696;2023-07-31T03:16:53;3.45;;;2.40;;
65691;SDS011;52411;52.716;6.696;2023-07-31T03:19:19;3.63;;;2.35;;
65691;SDS011;52411;52.716;6.696;2023-07-31T03:21:45;2.60;;;1.98;;
65691;SDS011;52411;52.716;6.696;2023-07-31T03:24:11;2.78;;;1.95;;
65691;SDS011;52411;52.716;6.696;2023-07-31T03:26:37;3.97;;;2.40;;
65691;SDS011;52411;52.716;6.696;2023-07-31T03:29:06;4.43;;;2.25;;
65691;SDS011;52411;52.716;6.696;2023-07-31T03:31:32;2.50;;;1.90;;
65691;SDS011;52411;52.716;6.696;2023-07-31T03:33:57;3.58;;;2.10;;
65691;SDS011;52411;52.716;6.696;2023-07-31T03:36:23;2.83;;;1.98;;
65691;SDS011;52411;52.716;6.696;2023-07-31T03:38:48;3.03;;;1.95;;
65691;SDS011;52411;52.716;6.696;2023-07-31T03:41:14;2.78;;;1.90;;
65691;SDS011;52411;52.716;6.696;2023-07-31T03:43:40;4.32;;;2.08;;
65691;SDS011;52411;52.716;6.696;2023-07-31T03:46:05;2.53;;;1.70;;
65691;SDS011;52411;52.716;6.696;2023-07-31T03:48:31;2.85;;;1.80;;
65691;SDS011;52411;52.716;6.696;2023-07-31T03:50:57;2.10;;;1.70;;
65691;SDS011;52411;52.716;6.696;2023-07-31T03:53:22;4.55;;;1.70;;
65691;SDS011;52411;52.716;6.696;2023-07-31T03:55:48;2.22;;;1.48;;
65691;SDS011;52411;52.716;6.696;2023-07-31T03:58:13;2.30;;;1.67;;
65691;SDS011;52411;52.716;6.696;2023-07-31T04:00:39;4.45;;;1.80;;
65691;SDS011;52411;52.716;6.696;2023-07-31T04:03:05;6.35;;;1.75;;
65691;SDS011;52411;52.716;6.696;2023-07-31T04:05:32;2.85;;;1.73;;
65691;SDS011;52411;52.716;6.696;2023-07-31T04:07:58;4.25;;;1.42;;
65691;SDS011;52411;52.716;6.696;2023-07-31T04:10:23;2.97;;;1.27;;
65691;SDS011;52411;52.716;6.696;2023-07-31T04:12:49;3.58;;;1.40;;
65691;SDS011;52411;52.716;6.696;2023-07-31T04:15:15;3.45;;;1.65;;
65691;SDS011;52411;52.716;6.696;2023-07-31T04:17:40;3.25;;;1.80;;
65691;SDS011;52411;52.716;6.696;2023-07-31T04:20:06;3.03;;;1.60;;
65691;SDS011;52411;52.716;6.696;2023-07-31T04:22:32;3.75;;;1.75;;
65691;SDS011;52411;52.716;6.696;2023-07-31T04:24:58;3.28;;;1.75;;
65691;SDS011;52411;52.716;6.696;2023-07-31T04:27:23;3.03;;;1.75;;
65691;SDS011;52411;52.716;6.696;2023-07-31T04:29:49;3.58;;;1.90;;
65691;SDS011;52411;52.716;6.696;2023-07-31T04:32:16;4.47;;;2.00;;
65691;SDS011;52411;52.716;6.696;2023-07-31T04:34:41;6.93;;;2.55;;
65691;SDS011;52411;52.716;6.696;2023-07-31T04:37:07;9.10;;;3.30;;
65691;SDS011;52411;52.716;6.696;2023-07-31T04:39:33;11.57;;;3.88;;
65691;SDS011;52411;52.716;6.696;2023-07-31T04:41:58;11.82;;;4.55;;
65691;SDS011;52411;52.716;6.696;2023-07-31T04:44:24;14.70;;;5.07;;
65691;SDS011;52411;52.716;6.696;2023-07-31T04:46:50;13.88;;;5.22;;
65691;SDS011;52411;52.716;6.696;2023-07-31T04:49:15;17.02;;;6.07;;
65691;SDS011;52411;52.716;6.696;2023-07-31T04:51:41;13.15;;;5.80;;
65691;SDS011;52411;52.716;6.696;2023-07-31T04:54:07;22.67;;;7.00;;
65691;SDS011;52411;52.716;6.696;2023-07-31T04:56:32;17.35;;;6.72;;
65691;SDS011;52411;52.716;6.696;2023-07-31T04:58:58;19.08;;;6.45;;
65691;SDS011;52411;52.716;6.696;2023-07-31T05:01:23;17.02;;;6.32;;
65691;SDS011;52411;52.716;6.696;2023-07-31T05:03:49;18.85;;;6.72;;
65691;SDS011;52411;52.716;6.696;2023-07-31T05:06:15;21.45;;;6.82;;
65691;SDS011;52411;52.716;6.696;2023-07-31T05:08:40;25.70;;;7.07;;
65691;SDS011;52411;52.716;6.696;2023-07-31T05:11:06;19.75;;;6.72;;
65691;SDS011;52411;52.716;6.696;2023-07-31T05:13:31;23.48;;;7.32;;
65691;SDS011;52411;52.716;6.696;2023-07-31T05:15:57;19.73;;;6.50;;
65691;SDS011;52411;52.716;6.696;2023-07-31T05:18:23;31.13;;;7.45;;
65691;SDS011;52411;52.716;6.696;2023-07-31T05:20:48;24.17;;;6.80;;
65691;SDS011;52411;52.716;6.696;2023-07-31T05:23:14;25.83;;;7.63;;
65691;SDS011;52411;52.716;6.696;2023-07-31T05:25:39;25.17;;;8.02;;
65691;SDS011;52411;52.716;6.696;2023-07-31T05:28:05;23.50;;;7.80;;
65691;SDS011;52411;52.716;6.696;2023-07-31T05:30:31;24.85;;;7.70;;
65691;SDS011;52411;52.716;6.696;2023-07-31T05:32:56;27.02;;;8.25;;
65691;SDS011;52411;52.716;6.696;2023-07-31T05:35:22;24.70;;;8.80;;
65691;SDS011;52411;52.716;6.696;2023-07-31T05:37:48;29.10;;;8.18;;
65691;SDS011;52411;52.716;6.696;2023-07-31T05:40:13;28.77;;;8.10;;
65691;SDS011;52411;52.716;6.696;2023-07-31T05:42:39;32.30;;;8.18;;
65691;SDS011;52411;52.716;6.696;2023-07-31T05:45:08;27.45;;;8.07;;
65691;SDS011;52411;52.716;6.696;2023-07-31T05:47:34;23.92;;;8.40;;
65691;SDS011;52411;52.716;6.696;2023-07-31T05:50:00;27.80;;;9.18;;
65691;SDS011;52411;52.716;6.696;2023-07-31T05:52:26;24.80;;;8.10;;
65691;SDS011;52411;52.716;6.696;2023-07-31T05:54:53;25.48;;;9.13;;
65691;SDS011;52411;52.716;6.696;2023-07-31T05:57:19;24.67;;;9.75;;
65691;SDS011;52411;52.716;6.696;2023-07-31T05:59:45;28.52;;;10.40;;
65691;SDS011;52411;52.716;6.696;2023-07-31T06:02:11;25.92;;;9.52;;
65691;SDS011;52411;52.716;6.696;2023-07-31T06:04:36;23.38;;;9.65;;
65691;SDS011;52411;52.716;6.696;2023-07-31T06:07:02;25.88;;;9.95;;
65691;SDS011;52411;52.716;6.696;2023-07-31T06:09:28;23.42;;;9.13;;
65691;SDS011;52411;52.716;6.696;2023-07-31T06:11:54;27.50;;;10.63;;
65691;SDS011;52411;52.716;6.696;2023-07-31T06:14:20;27.58;;;10.73;;
65691;SDS011;52411;52.716;6.696;2023-07-31T06:16:45;25.98;;;10.18;;
65691;SDS011;52411;52.716;6.696;2023-07-31T06:19:11;25.35;;;9.40;;
65691;SDS011;52411;52.716;6.696;2023-07-31T06:21:36;23.48;;;9.68;;
65691;SDS011;52411;52.716;6.696;2023-07-31T06:24:03;20.13;;;10.38;;
65691;SDS011;52411;52.716;6.696;2023-07-31T06:26:30;25.90;;;9.38;;
65691;SDS011;52411;52.716;6.696;2023-07-31T06:28:56;24.52;;;10.70;;
65691;SDS011;52411;52.716;6.696;2023-07-31T06:31:22;32.17;;;10.65;;
65691;SDS011;52411;52.716;6.696;2023-07-31T06:33:50;27.95;;;10.30;;
65691;SDS011;52411;52.716;6.696;2023-07-31T06:36:16;23.63;;;9.43;;
65691;SDS011;52411;52.716;6.696;2023-07-31T06:38:42;26.35;;;9.27;;
65691;SDS011;52411;52.716;6.696;2023-07-31T06:41:07;22.70;;;8.77;;
65691;SDS011;52411;52.716;6.696;2023-07-31T06:43:34;25.60;;;9.27;;
65691;SDS011;52411;52.716;6.696;2023-07-31T06:46:04;22.08;;;9.18;;
65691;SDS011;52411;52.716;6.696;2023-07-31T06:48:33;22.77;;;7.90;;
65691;SDS011;52411;52.716;6.696;2023-07-31T06:50:59;19.17;;;8.75;;
65691;SDS011;52411;52.716;6.696;2023-07-31T06:53:25;24.50;;;8.93;;
65691;SDS011;52411;52.716;6.696;2023-07-31T06:55:51;20.40;;;8.65;;
65691;SDS011;52411;52.716;6.696;2023-07-31T06:58:17;18.70;;;7.30;;
65691;SDS011;52411;52.716;6.696;2023-07-31T07:00:42;18.27;;;8.02;;
65691;SDS011;52411;52.716;6.696;2023-07-31T07:03:08;19.00;;;8.70;;
65691;SDS011;52411;52.716;6.696;2023-07-31T07:05:34;21.33;;;8.25;;
65691;SDS011;52411;52.716;6.696;2023-07-31T07:07:59;17.30;;;7.50;;
65691;SDS011;52411;52.716;6.696;2023-07-31T07:10:25;15.63;;;6.43;;
65691;SDS011;52411;52.716;6.696;2023-07-31T07:12:51;18.67;;;7.57;;
65691;SDS011;52411;52.716;6.696;2023-07-31T07:15:16;18.38;;;6.72;;
65691;SDS011;52411;52.716;6.696;2023-07-31T07:17:42;17.02;;;6.90;;
65691;SDS011;52411;52.716;6.696;2023-07-31T07:20:08;11.85;;;6.03;;
65691;SDS011;52411;52.716;6.696;2023-07-31T07:22:34;14.45;;;5.65;;
65691;SDS011;52411;52.716;6.696;2023-07-31T07:24:59;18.92;;;5.38;;
65691;SDS011;52411;52.716;6.696;2023-07-31T07:27:25;15.02;;;5.82;;
65691;SDS011;52411;52.716;6.696;2023-07-31T07:29:51;13.65;;;5.57;;
65691;SDS011;52411;52.716;6.696;2023-07-31T07:32:20;13.13;;;5.18;;
65691;SDS011;52411;52.716;6.696;2023-07-31T07:34:46;14.25;;;5.85;;
65691;SDS011;52411;52.716;6.696;2023-07-31T07:37:13;13.35;;;5.53;;
65691;SDS011;52411;52.716;6.696;2023-07-31T07:39:38;10.45;;;5.97;;
65691;SDS011;52411;52.716;6.696;2023-07-31T07:42:04;11.82;;;6.18;;
65691;SDS011;52411;52.716;6.696;2023-07-31T07:44:29;13.48;;;5.63;;
65691;SDS011;52411;52.716;6.696;2023-07-31T07:46:55;10.30;;;5.55;;
65691;SDS011;52411;52.716;6.696;2023-07-31T07:49:21;13.18;;;5.85;;
65691;SDS011;52411;52.716;6.696;2023-07-31T07:51:47;11.85;;;5.78;;
65691;SDS011;52411;52.716;6.696;2023-07-31T07:54:13;10.90;;;5.82;;
65691;SDS011;52411;52.716;6.696;2023-07-31T07:56:39;10.27;;;5.25;;
65691;SDS011;52411;52.716;6.696;2023-07-31T07:59:05;12.68;;;6.18;;
65691;SDS011;52411;52.716;6.696;2023-07-31T08:01:31;11.80;;;5.82;;
65691;SDS011;52411;52.716;6.696;2023-07-31T08:03:57;9.82;;;4.85;;
65691;SDS011;52411;52.716;6.696;2023-07-31T08:06:23;8.07;;;5.07;;
65691;SDS011;52411;52.716;6.696;2023-07-31T08:08:49;10.88;;;5.45;;
65691;SDS011;52411;52.716;6.696;2023-07-31T08:11:15;10.45;;;5.45;;
65691;SDS011;52411;52.716;6.696;2023-07-31T08:13:40;10.02;;;4.95;;
65691;SDS011;52411;52.716;6.696;2023-07-31T08:16:06;7.82;;;5.13;;
65691;SDS011;52411;52.716;6.696;2023-07-31T08:18:32;8.13;;;4.35;;
65691;SDS011;52411;52.716;6.696;2023-07-31T08:20:58;10.80;;;4.88;;
65691;SDS011;52411;52.716;6.696;2023-07-31T08:23:24;8.73;;;4.72;;
65691;SDS011;52411;52.716;6.696;2023-07-31T08:25:49;8.40;;;4.30;;
65691;SDS011;52411;52.716;6.696;2023-07-31T08:28:15;6.20;;;4.03;;
65691;SDS011;52411;52.716;6.696;2023-07-31T08:30:41;6.57;;;3.80;;
65691;SDS011;52411;52.716;6.696;2023-07-31T08:33:07;5.43;;;3.30;;
65691;SDS011;52411;52.716;6.696;2023-07-31T08:35:33;5.60;;;3.53;;
65691;SDS011;52411;52.716;6.696;2023-07-31T08:37:59;6.82;;;3.90;;
65691;SDS011;52411;52.716;6.696;2023-07-31T08:40:24;6.25;;;3.30;;
65691;SDS011;52411;52.716;6.696;2023-07-31T08:42:51;6.75;;;3.67;;
65691;SDS011;52411;52.716;6.696;2023-07-31T08:45:19;5.97;;;3.45;;
65691;SDS011;52411;52.716;6.696;2023-07-31T08:47:46;6.25;;;3.00;;
65691;SDS011;52411;52.716;6.696;2023-07-31T08:50:14;6.85;;;3.50;;
65691;SDS011;52411;52.716;6.696;2023-07-31T08:52:41;5.65;;;3.50;;
65691;SDS011;52411;52.716;6.696;2023-07-31T08:55:07;5.60;;;3.35;;
65691;SDS011;52411;52.716;6.696;2023-07-31T08:57:34;4.68;;;3.30;;
65691;SDS011;52411;52.716;6.696;2023-07-31T09:00:03;7.50;;;2.97;;
65691;SDS011;52411;52.716;6.696;2023-07-31T09:02:48;6.30;;;3.00;;
65691;SDS011;52411;52.716;6.696;2023-07-31T09:05:21;5.97;;;3.00;;
65691;SDS011;52411;52.716;6.696;2023-07-31T09:07:47;4.88;;;3.00;;
65691;SDS011;52411;52.716;6.696;2023-07-31T09:10:15;4.10;;;2.90;;
65691;SDS011;52411;52.716;6.696;2023-07-31T09:12:40;4.47;;;2.55;;
65691;SDS011;52411;52.716;6.696;2023-07-31T09:15:07;4.28;;;2.80;;
65691;SDS011;52411;52.716;6.696;2023-07-31T09:17:34;4.03;;;2.58;;
65691;SDS011;52411;52.716;6.696;2023-07-31T09:20:17;3.50;;;2.40;;
65691;SDS011;52411;52.716;6.696;2023-07-31T09:22:45;3.47;;;2.20;;
65691;SDS011;52411;52.716;6.696;2023-07-31T09:25:15;3.05;;;2.22;;
65691;SDS011;52411;52.716;6.696;2023-07-31T09:30:23;4.38;;;2.13;;
65691;SDS011;52411;52.716;6.696;2023-07-31T09:32:50;2.70;;;1.50;;
65691;SDS011;52411;52.716;6.696;2023-07-31T09:35:49;2.92;;;2.00;;
65691;SDS011;52411;52.716;6.696;2023-07-31T09:38:11;3.03;;;1.73;;
65691;SDS011;52411;52.716;6.696;2023-07-31T09:40:39;2.60;;;2.00;;
65691;SDS011;52411;52.716;6.696;2023-07-31T09:43:07;2.65;;;2.00;;
65691;SDS011;52411;52.716;6.696;2023-07-31T09:45:36;2.47;;;1.67;;
65691;SDS011;52411;52.716;6.696;2023-07-31T09:48:03;2.42;;;1.60;;
65691;SDS011;52411;52.716;6.696;2023-07-31T09:50:34;2.60;;;1.73;;
65691;SDS011;52411;52.716;6.696;2023-07-31T09:53:03;2.53;;;1.80;;
65691;SDS011;52411;52.716;6.696;2023-07-31T09:55:29;2.78;;;2.03;;
65691;SDS011;52411;52.716;6.696;2023-07-31T09:57:56;2.72;;;1.75;;
65691;SDS011;52411;52.716;6.696;2023-07-31T10:00:23;2.88;;;2.00;;
65691;SDS011;52411;52.716;6.696;2023-07-31T10:02:52;2.20;;;1.90;;
65691;SDS011;52411;52.716;6.696;2023-07-31T10:05:19;2.85;;;2.20;;
65691;SDS011;52411;52.716;6.696;2023-07-31T10:07:51;2.92;;;2.40;;
65691;SDS011;52411;52.716;6.696;2023-07-31T10:10:20;4.95;;;2.60;;
65691;SDS011;52411;52.716;6.696;2023-07-31T10:12:47;3.47;;;2.20;;
65691;SDS011;52411;52.716;6.696;2023-07-31T10:15:14;2.67;;;2.28;;
65691;SDS011;52411;52.716;6.696;2023-07-31T10:17:41;3.63;;;2.40;;
65691;SDS011;52411;52.716;6.696;2023-07-31T10:20:07;3.45;;;2.50;;
65691;SDS011;52411;52.716;6.696;2023-07-31T10:22:34;3.33;;;2.75;;
65691;SDS011;52411;52.716;6.696;2023-07-31T10:25:00;5.38;;;2.53;;
65691;SDS011;52411;52.716;6.696;2023-07-31T10:27:26;4.13;;;2.80;;
65691;SDS011;52411;52.716;6.696;2023-07-31T10:29:54;3.63;;;2.67;;
65691;SDS011;52411;52.716;6.696;2023-07-31T10:32:21;3.20;;;2.40;;
65691;SDS011;52411;52.716;6.696;2023-07-31T10:34:49;3.35;;;2.70;;
65691;SDS011;52411;52.716;6.696;2023-07-31T10:40:00;3.17;;;2.20;;
65691;SDS011;52411;52.716;6.696;2023-07-31T10:44:57;3.55;;;2.40;;
65691;SDS011;52411;52.716;6.696;2023-07-31T10:47:24;2.78;;;2.13;;
65691;SDS011;52411;52.716;6.696;2023-07-31T10:49:50;4.13;;;2.38;;
65691;SDS011;52411;52.716;6.696;2023-07-31T10:52:19;3.20;;;2.75;;
65691;SDS011;52411;52.716;6.696;2023-07-31T10:54:49;3.17;;;2.40;;
65691;SDS011;52411;52.716;6.696;2023-07-31T10:57:19;3.28;;;2.50;;
65691;SDS011;52411;52.716;6.696;2023-07-31T10:59:46;3.30;;;2.70;;
65691;SDS011;52411;52.716;6.696;2023-07-31T11:02:23;4.07;;;3.10;;
65691;SDS011;52411;52.716;6.696;2023-07-31T11:05:05;5.78;;;2.85;;
65691;SDS011;52411;52.716;6.696;2023-07-31T11:07:50;3.47;;;2.88;;
65691;SDS011;52411;52.716;6.696;2023-07-31T11:10:16;3.88;;;3.00;;
65691;SDS011;52411;52.716;6.696;2023-07-31T11:12:44;3.67;;;3.20;;
65691;SDS011;52411;52.716;6.696;2023-07-31T11:15:11;3.63;;;3.13;;
65691;SDS011;52411;52.716;6.696;2023-07-31T11:17:40;5.38;;;2.75;;
65691;SDS011;52411;52.716;6.696;2023-07-31T11:20:06;4.38;;;3.08;;
65691;SDS011;52411;52.716;6.696;2023-07-31T11:22:33;2.75;;;2.42;;
65691;SDS011;52411;52.716;6.696;2023-07-31T11:25:00;3.47;;;2.47;;
65691;SDS011;52411;52.716;6.696;2023-07-31T11:27:28;2.78;;;2.47;;
65691;SDS011;52411;52.716;6.696;2023-07-31T11:29:59;2.78;;;2.22;;
65691;SDS011;52411;52.716;6.696;2023-07-31T11:32:26;3.15;;;2.35;;
65691;SDS011;52411;52.716;6.696;2023-07-31T11:34:55;3.28;;;2.10;;
65691;SDS011;52411;52.716;6.696;2023-07-31T11:37:21;3.22;;;2.53;;
65691;SDS011;52411;52.716;6.696;2023-07-31T11:39:59;3.38;;;2.85;;
65691;SDS011;52411;52.716;6.696;2023-07-31T11:42:26;2.90;;;2.55;;
65691;SDS011;52411;52.716;6.696;2023-07-31T11:44:51;2.85;;;2.40;;
65691;SDS011;52411;52.716;6.696;2023-07-31T11:47:17;4.10;;;2.70;;
65691;SDS011;52411;52.716;6.696;2023-07-31T11:49:43;2.80;;;2.30;;
65691;SDS011;52411;52.716;6.696;2023-07-31T11:52:09;3.38;;;2.60;;
65691;SDS011;52411;52.716;6.696;2023-07-31T11:54:36;3.30;;;2.83;;
65691;SDS011;52411;52.716;6.696;2023-07-31T11:57:02;3.78;;;2.70;;
65691;SDS011;52411;52.716;6.696;2023-07-31T11:59:28;3.92;;;2.67;;
65691;SDS011;52411;52.716;6.696;2023-07-31T12:01:54;3.88;;;2.50;;
65691;SDS011;52411;52.716;6.696;2023-07-31T12:04:20;2.60;;;2.38;;
65691;SDS011;52411;52.716;6.696;2023-07-31T12:06:46;3.45;;;2.35;;
65691;SDS011;52411;52.716;6.696;2023-07-31T12:09:14;2.40;;;1.98;;
65691;SDS011;52411;52.716;6.696;2023-07-31T12:11:46;1.90;;;1.70;;
65691;SDS011;52411;52.716;6.696;2023-07-31T12:19:29;3.58;;;2.65;;
65691;SDS011;52411;52.716;6.696;2023-07-31T12:21:58;3.60;;;3.20;;
65691;SDS011;52411;52.716;6.696;2023-07-31T12:24:28;3.75;;;2.95;;
65691;SDS011;52411;52.716;6.696;2023-07-31T12:26:53;4.93;;;3.40;;
65691;SDS011;52411;52.716;6.696;2023-07-31T12:29:20;6.00;;;3.80;;
65691;SDS011;52411;52.716;6.696;2023-07-31T12:31:45;5.75;;;4.22;;
65691;SDS011;52411;52.716;6.696;2023-07-31T12:34:15;6.28;;;4.10;;
65691;SDS011;52411;52.716;6.696;2023-07-31T12:36:48;7.75;;;4.53;;
65691;SDS011;52411;52.716;6.696;2023-07-31T12:39:14;5.45;;;4.00;;
65691;SDS011;52411;52.716;6.696;2023-07-31T12:41:40;4.22;;;2.80;;
65691;SDS011;52411;52.716;6.696;2023-07-31T12:44:05;4.40;;;2.50;;
65691;SDS011;52411;52.716;6.696;2023-07-31T12:46:31;4.78;;;2.50;;
65691;SDS011;52411;52.716;6.696;2023-07-31T12:48:57;4.63;;;2.83;;
65691;SDS011;52411;52.716;6.696;2023-07-31T12:51:22;5.72;;;3.35;;
65691;SDS011;52411;52.716;6.696;2023-07-31T12:53:48;5.65;;;2.70;;
65691;SDS011;52411;52.716;6.696;2023-07-31T12:56:13;6.25;;;2.90;;
65691;SDS011;52411;52.716;6.696;2023-07-31T12:58:39;5.05;;;2.70;;
65691;SDS011;52411;52.716;6.696;2023-07-31T13:01:05;6.25;;;3.47;;
65691;SDS011;52411;52.716;6.696;2023-07-31T13:03:31;6.97;;;4.22;;
65691;SDS011;52411;52.716;6.696;2023-07-31T13:05:57;4.93;;;3.97;;
65691;SDS011;52411;52.716;6.696;2023-07-31T13:08:22;5.82;;;3.95;;
65691;SDS011;52411;52.716;6.696;2023-07-31T13:10:48;6.30;;;4.28;;
65691;SDS011;52411;52.716;6.696;2023-07-31T13:13:13;6.15;;;4.13;;
65691;SDS011;52411;52.716;6.696;2023-07-31T13:15:39;6.32;;;4.38;;
65691;SDS011;52411;52.716;6.696;2023-07-31T13:18:05;5.65;;;4.18;;
65691;SDS011;52411;52.716;6.696;2023-07-31T13:20:30;8.82;;;4.13;;
65691;SDS011;52411;52.716;6.696;2023-07-31T13:22:56;5.82;;;4.13;;
65691;SDS011;52411;52.716;6.696;2023-07-31T13:25:22;7.93;;;4.47;;
65691;SDS011;52411;52.716;6.696;2023-07-31T13:27:47;6.13;;;4.00;;
65691;SDS011;52411;52.716;6.696;2023-07-31T13:30:13;7.45;;;4.22;;
65691;SDS011;52411;52.716;6.696;2023-07-31T13:32:39;6.88;;;4.40;;
65691;SDS011;52411;52.716;6.696;2023-07-31T13:35:07;7.43;;;4.70;;
65691;SDS011;52411;52.716;6.696;2023-07-31T13:37:34;7.43;;;4.88;;
65691;SDS011;52411;52.716;6.696;2023-07-31T13:40:00;7.10;;;4.70;;
65691;SDS011;52411;52.716;6.696;2023-07-31T13:42:26;6.30;;;4.90;;
65691;SDS011;52411;52.716;6.696;2023-07-31T13:44:53;6.85;;;4.97;;
65691;SDS011;52411;52.716;6.696;2023-07-31T13:47:21;9.05;;;5.57;;
65691;SDS011;52411;52.716;6.696;2023-07-31T13:49:46;7.25;;;5.60;;
65691;SDS011;52411;52.716;6.696;2023-07-31T13:52:12;8.68;;;5.80;;
65691;SDS011;52411;52.716;6.696;2023-07-31T13:54:37;7.80;;;5.70;;
65691;SDS011;52411;52.716;6.696;2023-07-31T13:57:03;8.05;;;5.78;;
65691;SDS011;52411;52.716;6.696;2023-07-31T13:59:29;8.30;;;5.65;;
65691;SDS011;52411;52.716;6.696;2023-07-31T14:01:54;6.05;;;4.55;;
65691;SDS011;52411;52.716;6.696;2023-07-31T14:04:20;7.30;;;4.50;;
65691;SDS011;52411;52.716;6.696;2023-07-31T14:06:46;6.32;;;3.85;;
65691;SDS011;52411;52.716;6.696;2023-07-31T14:09:13;8.15;;;4.03;;
65691;SDS011;52411;52.716;6.696;2023-07-31T14:11:39;6.28;;;3.97;;
65691;SDS011;52411;52.716;6.696;2023-07-31T14:14:05;6.05;;;3.70;;
65691;SDS011;52411;52.716;6.696;2023-07-31T14:16:30;5.75;;;3.75;;
65691;SDS011;52411;52.716;6.696;2023-07-31T14:18:56;4.57;;;3.60;;
65691;SDS011;52411;52.716;6.696;2023-07-31T14:21:24;5.68;;;3.40;;
65691;SDS011;52411;52.716;6.696;2023-07-31T14:23:50;4.88;;;3.38;;
65691;SDS011;52411;52.716;6.696;2023-07-31T14:26:16;7.10;;;3.75;;
65691;SDS011;52411;52.716;6.696;2023-07-31T14:28:41;7.03;;;3.67;;
65691;SDS011;52411;52.716;6.696;2023-07-31T14:31:07;7.45;;;3.85;;
65691;SDS011;52411;52.716;6.696;2023-07-31T14:33:33;5.10;;;3.75;;
65691;SDS011;52411;52.716;6.696;2023-07-31T14:35:58;4.95;;;3.90;;
65691;SDS011;52411;52.716;6.696;2023-07-31T14:38:24;7.30;;;4.22;;
65691;SDS011;52411;52.716;6.696;2023-07-31T14:40:50;7.78;;;3.75;;
65691;SDS011;52411;52.716;6.696;2023-07-31T14:43:16;7.78;;;4.10;;
65691;SDS011;52411;52.716;6.696;2023-07-31T14:45:42;4.43;;;3.53;;
65691;SDS011;52411;52.716;6.696;2023-07-31T14:48:07;5.85;;;3.78;;
65691;SDS011;52411;52.716;6.696;2023-07-31T14:50:33;6.60;;;3.80;;
65691;SDS011;52411;52.716;6.696;2023-07-31T14:52:59;6.90;;;3.85;;
65691;SDS011;52411;52.716;6.696;2023-07-31T14:55:25;7.35;;;3.90;;
65691;SDS011;52411;52.716;6.696;2023-07-31T14:57:50;6.13;;;4.43;;
65691;SDS011;52411;52.716;6.696;2023-07-31T15:00:16;5.00;;;3.45;;
65691;SDS011;52411;52.716;6.696;2023-07-31T15:02:42;5.43;;;3.58;;